Detall de PIREP

Printer-friendly versionPDF version

[2013/12/24 14:44:00]
Flight IATA:CT1004
Pilot Number:012
Company ICAO:CAT
Aircraft Type:F70/A
PAX:79
Aircraft Registration:PFJ
Departing Airport: LEGE
Destination Airport: LEXJ
Alternate Airport:LEMD
Online: VATSIM
Route:MAMUK H110 REBUL G23 BLV
Flight Level:F230
No Slew and time accel
No pause
Crash detect
Detect pilot in Cockpit between each 30 and 45 minutes
14:44 Zero fuel Weight: 70691 Lbs, Fuel Weight: 12742 Lbs
14:44 VATSIM:LEGE 241430Z 21020G34KT 190V250 9999 SCT024 13/08 Q1009
14:44 VATSIM:LEXJ 241430Z 19012KT 150V240 9999 FEW030 BKN075 15/09 Q0991 RERA
14:44 VOICE CATALONIAN
14:47 Parking Brakes off
14:53 Take-off
14:53 Take off Weight: 83049 Lbs
14:53 Wind: 218º @ 025 Knots Heading: 199º
14:53 POS N41º 54´ 13´´ E002º 45´ 41´´
14:53 Gear Up: 146 Knots
14:53 Flaps:2 at 146 Knots
14:54 Flaps:1 at 164 Knots
14:54 Flaps:0 at 180 Knots
15:03 TOC
15:03 Fuel Weight: 10989 Lb
15:08 Wind:251º@049 Knots Heading: 258º Ground Speed: 387 Knots Altitude 22896 ft
15:23 Wind:248º@059 Knots Heading: 290º Ground Speed: 394 Knots Altitude 22618 ft
15:33 TOD
15:33 Fuel Weight: 8043 Lb
15:38 Wind:249º@080 Knots Heading: 290º Ground Speed: 305 Knots Altitude 14350 ft
15:50 Flaps:1 at 238 Knots
15:50 Gear Down: 223 Knots
15:50 Flaps:2 at 214 Knots
15:51 Flaps:3 at 181 Knots
15:51 Flaps:4 at 153 Knots
15:52 TouchDown:Rate -330 ft/min Speed: 123 Knots
15:53 Wind:217º@024 Knots Heading: 281º Ground Speed: 105 Knots Altitude 026 ft
15:53 VATSIM:LEXJ 241530Z 21014G27KT 160V260 9999 FEW040 BKN075 15/06 Q0991
15:53 Land
15:53 Wind:220º@020 Knots
15:53 Heading: 290º
15:53 Flight Duration: 01:00
15:53 Landing Weight: 77915 Lbs
15:53 POS N43º 25´ 39´´ W003º 49´ 19´´
15:58 Parking brakes on
15:58 Block to Block Duration: 01:11
15:58 Final Fuel: 7045 Lbls
15:58 Spent Fuel: 5696 Lbls
15:58 Flight Length: 331 NM
15:58 TOD Land Length: 87 NM

Exportar CSV

Powered by Drupal - Modified by Danger4k